createdAt,value
2023-04-11T00:01:24.490Z,100854.63
2023-04-11T00:03:51.150Z,100859.00
2023-04-11T00:06:17.800Z,100860.91
2023-04-11T00:08:44.684Z,100858.34
2023-04-11T00:11:11.387Z,100863.72
2023-04-11T00:13:38.533Z,100858.34
2023-04-11T00:16:05.517Z,100857.66
2023-04-11T00:18:32.078Z,100855.91
2023-04-11T00:20:58.492Z,100853.97
2023-04-11T00:23:24.984Z,100850.97
2023-04-11T00:25:51.495Z,100858.25
2023-04-11T00:28:18.255Z,100857.94
2023-04-11T00:30:44.696Z,100852.66
2023-04-11T00:33:11.341Z,100854.22
2023-04-11T00:35:39.624Z,100857.25
2023-04-11T00:38:06.128Z,100858.38
2023-04-11T00:40:32.648Z,100862.50
2023-04-11T00:42:59.197Z,100859.38
2023-04-11T00:45:26.001Z,100860.47
2023-04-11T00:47:53.371Z,100864.44
2023-04-11T00:50:22.124Z,100863.31
2023-04-11T00:55:45.346Z,100860.66
2023-04-11T00:58:16.862Z,100869.97
2023-04-11T01:00:43.363Z,100867.72
2023-04-11T01:03:18.247Z,100864.94
2023-04-11T01:05:46.685Z,100865.88
2023-04-11T01:08:15.231Z,100862.84
2023-04-11T01:10:42.381Z,100857.47
2023-04-11T01:13:09.954Z,100864.72
2023-04-11T01:15:36.525Z,100865.88
2023-04-11T01:18:04.368Z,100866.66
2023-04-11T01:20:31.980Z,100860.94
2023-04-11T01:22:59.951Z,100866.66
2023-04-11T01:25:26.666Z,100868.34
2023-04-11T01:27:56.057Z,100859.13
2023-04-11T01:30:22.548Z,100864.84
2023-04-11T01:32:59.260Z,100860.94
2023-04-11T01:35:25.891Z,100860.47
2023-04-11T01:37:55.494Z,100855.97
2023-04-11T01:40:29.915Z,100867.91
2023-04-11T01:42:56.483Z,100864.53
2023-04-11T01:45:23.859Z,100873.75
2023-04-11T01:47:52.145Z,100871.94
2023-04-11T01:50:18.841Z,100870.72
2023-04-11T01:52:51.490Z,100879.13
2023-04-11T01:55:18.242Z,100873.41
2023-04-11T01:57:44.792Z,100883.06
2023-04-11T02:00:24.086Z,100884.44
2023-04-11T02:02:50.868Z,100886.34
2023-04-11T02:05:18.570Z,100883.28
2023-04-11T02:07:57.152Z,100894.56
2023-04-11T02:10:23.645Z,100898.03
2023-04-11T02:12:50.166Z,100900.84
2023-04-11T02:15:16.658Z,100906.69
2023-04-11T02:17:45.583Z,100913.34
2023-04-11T02:20:13.791Z,100918.41
2023-04-11T02:22:40.790Z,100909.94
2023-04-11T02:25:08.310Z,100910.75
2023-04-11T02:27:34.781Z,100912.66
2023-04-11T02:30:05.554Z,100925.81
2023-04-11T02:32:36.001Z,100929.66
2023-04-11T02:35:02.688Z,100926.63
2023-04-11T02:37:29.414Z,100927.72
2023-04-11T02:39:56.350Z,100915.03
2023-04-11T02:42:22.875Z,100919.19
2023-04-11T02:44:49.294Z,100919.63
2023-04-11T02:47:16.082Z,100921.22
2023-04-11T02:49:42.617Z,100917.59
2023-04-11T02:52:09.136Z,100925.91
2023-04-11T02:54:35.684Z,100933.53
2023-04-11T02:57:02.282Z,100926.00
2023-04-11T02:59:28.968Z,100923.50
2023-04-11T03:01:59.410Z,100921.47
2023-04-11T03:04:26.978Z,100930.69
2023-04-11T03:06:53.781Z,100931.16
2023-04-11T03:09:21.441Z,100935.31
2023-04-11T03:11:48.139Z,100927.34
2023-04-11T03:14:14.594Z,100930.94
2023-04-11T03:16:41.394Z,100941.84
2023-04-11T03:19:08.060Z,100938.03
2023-04-11T03:21:34.800Z,100931.72
2023-04-11T03:24:01.395Z,100933.63
2023-04-11T03:26:27.920Z,100935.56
2023-04-11T03:31:34.956Z,100936.41
2023-04-11T03:34:01.539Z,100941.34
2023-04-11T03:36:27.987Z,100951.31
2023-04-11T03:38:54.924Z,100945.81
2023-04-11T03:41:21.701Z,100944.25
2023-04-11T03:43:48.149Z,100952.22
2023-04-11T03:46:14.693Z,100956.03
2023-04-11T03:48:41.112Z,100958.38
2023-04-11T03:51:07.694Z,100961.41
2023-04-11T03:53:34.216Z,100967.13
2023-04-11T03:56:01.565Z,100959.25
2023-04-11T03:58:28.229Z,100968.00
2023-04-11T04:03:45.185Z,100988.75
2023-04-11T04:06:11.924Z,100982.13
2023-04-11T04:08:38.345Z,100990.53
2023-04-11T04:11:05.475Z,100995.28
2023-04-11T04:13:31.920Z,100991.47
2023-04-11T04:15:58.421Z,100995.41
2023-04-11T04:18:24.916Z,100993.19
2023-04-11T04:20:51.365Z,100987.78
2023-04-11T04:23:18.312Z,100988.56
2023-04-11T04:25:48.366Z,101002.38
2023-04-11T04:28:17.899Z,101000.34
2023-04-11T04:30:49.930Z,101003.25
2023-04-11T04:33:18.693Z,101009.28
2023-04-11T04:35:45.244Z,101009.94
2023-04-11T04:38:18.055Z,101005.19
2023-04-11T04:40:44.709Z,101022.50
2023-04-11T04:43:18.626Z,101024.56
2023-04-11T04:45:45.583Z,101025.56
2023-04-11T04:48:13.966Z,101030.00
2023-04-11T04:50:40.574Z,101028.00
2023-04-11T04:53:07.463Z,101037.38
2023-04-11T04:55:34.455Z,101027.88
2023-04-11T04:58:01.176Z,101030.44
2023-04-11T05:00:37.040Z,101046.91
2023-04-11T05:05:49.599Z,101053.59
2023-04-11T05:08:19.358Z,101053.00
2023-04-11T05:10:45.905Z,101056.47
2023-04-11T05:13:12.353Z,101065.66
2023-04-11T05:15:38.980Z,101059.94
2023-04-11T05:18:14.309Z,101066.13
2023-04-11T05:20:41.019Z,101078.75
2023-04-11T05:23:10.588Z,101076.97
2023-04-11T05:25:37.162Z,101078.72
2023-04-11T05:28:03.770Z,101077.78
2023-04-11T05:30:30.334Z,101084.50
2023-04-11T05:32:56.851Z,101084.56
2023-04-11T05:35:23.456Z,101087.09
2023-04-11T05:37:50.305Z,101093.53
2023-04-11T05:40:17.074Z,101087.59
2023-04-11T05:42:43.516Z,101093.34
2023-04-11T05:45:10.631Z,101094.81
2023-04-11T05:47:37.194Z,101096.13
2023-04-11T05:50:03.840Z,101098.72
2023-04-11T05:52:30.293Z,101102.81
2023-04-11T05:54:56.710Z,101101.47
2023-04-11T05:57:38.536Z,101109.16
2023-04-11T06:00:13.204Z,101119.13
2023-04-11T06:02:42.213Z,101115.59
2023-04-11T06:05:12.229Z,101129.22
2023-04-11T06:07:39.839Z,101133.31
2023-04-11T06:10:10.104Z,101120.63
2023-04-11T06:12:37.127Z,101123.34
2023-04-11T06:15:04.117Z,101131.94
2023-04-11T06:17:31.139Z,101130.44
2023-04-11T06:19:58.397Z,101127.44
2023-04-11T06:22:25.193Z,101122.75
2023-04-11T06:24:52.045Z,101122.31
2023-04-11T06:27:18.503Z,101134.59
2023-04-11T06:29:45.029Z,101124.69
2023-04-11T06:32:12.579Z,101140.25
2023-04-11T06:34:39.865Z,101145.31
2023-04-11T06:37:09.018Z,101138.13
2023-04-11T06:39:36.198Z,101143.59
2023-04-11T06:42:03.457Z,101149.22
2023-04-11T06:44:30.160Z,101152.44
2023-04-11T06:46:57.257Z,101162.56
2023-04-11T06:49:23.692Z,101156.75
2023-04-11T06:51:50.608Z,101171.22
2023-04-11T06:54:19.299Z,101167.22
2023-04-11T06:56:45.972Z,101166.47
2023-04-11T06:59:12.488Z,101173.91
2023-04-11T07:01:39.907Z,101177.50
2023-04-11T07:04:07.068Z,101160.97
2023-04-11T07:06:37.870Z,101179.00
2023-04-11T07:09:05.205Z,101178.44
2023-04-11T07:11:32.689Z,101179.22
2023-04-11T07:14:00.682Z,101178.84
2023-04-11T07:16:27.289Z,101181.53
2023-04-11T07:18:54.937Z,101183.41
2023-04-11T07:21:21.528Z,101191.72
2023-04-11T07:23:48.287Z,101190.00
2023-04-11T07:26:16.861Z,101202.94
2023-04-11T07:28:45.165Z,101208.88
2023-04-11T07:31:12.417Z,101202.78
2023-04-11T07:33:39.062Z,101198.09
2023-04-11T07:36:06.982Z,101201.97
2023-04-11T07:38:53.273Z,101208.81
2023-04-11T07:41:23.002Z,101218.94
2023-04-11T07:43:56.054Z,101204.94
2023-04-11T07:46:22.751Z,101201.16
2023-04-11T07:48:49.634Z,101204.69
2023-04-11T07:51:17.188Z,101208.63
2023-04-11T07:53:56.009Z,101208.25
2023-04-11T07:56:22.817Z,101219.28
2023-04-11T07:58:58.798Z,101221.25
2023-04-11T08:01:27.146Z,101219.25
2023-04-11T08:03:55.321Z,101207.50
2023-04-11T08:06:22.242Z,101220.16
2023-04-11T08:08:50.912Z,101227.09
2023-04-11T08:11:17.824Z,101242.97
2023-04-11T08:13:44.418Z,101234.00
2023-04-11T08:16:15.153Z,101251.50
2023-04-11T08:18:42.525Z,101239.19
2023-04-11T08:21:11.591Z,101255.22
2023-04-11T08:23:39.908Z,101264.59
2023-04-11T08:26:07.650Z,101253.63
2023-04-11T08:28:34.609Z,101251.97
2023-04-11T08:31:04.055Z,101274.13
2023-04-11T08:33:33.171Z,101263.84
2023-04-11T08:36:12.261Z,101271.63
2023-04-11T08:38:51.081Z,101269.22
2023-04-11T08:41:32.603Z,101268.88
2023-04-11T08:43:59.274Z,101278.69
2023-04-11T08:46:25.724Z,101277.50
2023-04-11T08:48:52.448Z,101269.22
2023-04-11T08:51:27.601Z,101280.88
2023-04-11T08:54:00.766Z,101311.63
2023-04-11T08:56:27.382Z,101296.50
2023-04-11T08:58:53.917Z,101291.47
2023-04-11T09:01:32.328Z,101286.44
2023-04-11T09:04:00.602Z,101288.16
2023-04-11T09:06:32.469Z,101293.81
2023-04-11T09:09:07.895Z,101292.31
2023-04-11T09:11:54.570Z,101276.34
2023-04-11T09:14:25.973Z,101295.16
2023-04-11T09:17:05.442Z,101285.25
2023-04-11T09:19:35.392Z,101294.00
2023-04-11T09:22:12.766Z,101294.97
2023-04-11T09:24:39.377Z,101305.22
2023-04-11T09:27:11.266Z,101305.13
2023-04-11T09:29:45.626Z,101310.63
2023-04-11T09:32:33.555Z,101302.38
2023-04-11T09:35:20.624Z,101303.75
2023-04-11T09:37:48.454Z,101301.22
2023-04-11T09:40:16.536Z,101316.97
2023-04-11T09:42:44.365Z,101305.09
2023-04-11T09:45:22.043Z,101316.53
2023-04-11T09:47:51.312Z,101310.38
2023-04-11T09:50:17.933Z,101313.28
2023-04-11T09:52:46.059Z,101324.63
2023-04-11T09:55:16.512Z,101316.09
2023-04-11T09:57:50.312Z,101309.06
2023-04-11T10:00:22.928Z,101312.84
2023-04-11T10:02:52.910Z,101302.53
2023-04-11T10:05:20.932Z,101323.31
2023-04-11T10:08:08.606Z,101303.38
2023-04-11T10:10:36.227Z,101306.84
2023-04-11T10:13:03.585Z,101305.31
2023-04-11T10:15:30.896Z,101314.66
2023-04-11T10:18:09.141Z,101324.56
2023-04-11T10:20:38.922Z,101325.63
2023-04-11T10:23:06.028Z,101319.28
2023-04-11T10:25:48.550Z,101329.06
2023-04-11T10:28:33.516Z,101312.94
2023-04-11T10:31:02.277Z,101310.28
2023-04-11T10:33:29.071Z,101318.56
2023-04-11T10:36:02.139Z,101321.34
2023-04-11T10:38:48.468Z,101319.41
2023-04-11T10:41:33.172Z,101329.19
2023-04-11T10:44:21.471Z,101335.84
2023-04-11T10:46:50.795Z,101326.44
2023-04-11T10:49:38.574Z,101321.34
2023-04-11T10:52:37.372Z,101327.63
2023-04-11T10:55:17.750Z,101322.56
2023-04-11T10:58:07.556Z,101324.06
2023-04-11T11:00:52.908Z,101324.81
2023-04-11T11:03:22.086Z,101338.09
2023-04-11T11:06:01.381Z,101338.13
2023-04-11T11:08:33.420Z,101335.84
2023-04-11T11:11:02.022Z,101333.84
2023-04-11T11:13:56.024Z,101330.66
2023-04-11T11:16:25.209Z,101342.75
2023-04-11T11:18:53.905Z,101352.88
2023-04-11T11:21:27.914Z,101343.88
2023-04-11T11:23:55.498Z,101352.19
2023-04-11T11:26:25.243Z,101343.59
2023-04-11T11:29:00.602Z,101357.13
2023-04-11T11:31:35.122Z,101357.22
2023-04-11T11:34:23.754Z,101360.66
2023-04-11T11:37:06.728Z,101363.03
2023-04-11T11:39:34.759Z,101363.44
2023-04-11T11:42:19.056Z,101368.06
2023-04-11T11:44:48.793Z,101359.22
2023-04-11T11:47:29.052Z,101357.56
2023-04-11T11:50:02.028Z,101364.88
2023-04-11T11:52:41.571Z,101360.91
2023-04-11T11:55:29.901Z,101365.38
2023-04-11T11:58:08.052Z,101362.09
2023-04-11T12:00:40.091Z,101370.34
2023-04-11T12:03:22.509Z,101371.97
2023-04-11T12:05:58.469Z,101361.63
2023-04-11T12:08:44.884Z,101366.63
2023-04-11T12:11:15.123Z,101364.88
2023-04-11T12:13:41.569Z,101381.19
2023-04-11T12:16:09.015Z,101378.13
2023-04-11T12:18:35.839Z,101378.28
2023-04-11T12:21:02.222Z,101372.03
2023-04-11T12:23:28.638Z,101377.16
2023-04-11T12:25:55.359Z,101388.38
2023-04-11T12:28:21.927Z,101363.53
2023-04-11T12:30:48.421Z,101386.50
2023-04-11T12:33:14.867Z,101379.47
2023-04-11T12:38:07.835Z,101379.53
2023-04-11T12:40:34.328Z,101377.06
2023-04-11T12:43:01.098Z,101374.59
2023-04-11T12:45:27.666Z,101369.19
2023-04-11T12:47:54.344Z,101369.84
2023-04-11T12:50:23.528Z,101372.72
2023-04-11T12:52:50.644Z,101371.31
2023-04-11T12:55:17.335Z,101373.06
2023-04-11T12:57:43.821Z,101385.19
2023-04-11T13:00:11.702Z,101369.13
2023-04-11T13:02:44.079Z,101364.91
2023-04-11T13:05:14.524Z,101369.97
2023-04-11T13:07:42.314Z,101373.56
2023-04-11T13:10:09.385Z,101385.25
2023-04-11T13:12:44.599Z,101388.22
2023-04-11T13:18:05.597Z,101348.56
2023-04-11T13:20:32.685Z,101387.66
2023-04-11T13:22:59.244Z,101380.69
2023-04-11T13:25:26.093Z,101383.44
2023-04-11T13:27:52.679Z,101394.06
2023-04-11T13:30:19.874Z,101381.00
2023-04-11T13:32:46.398Z,101372.84
2023-04-11T13:35:13.293Z,101383.84
2023-04-11T13:37:39.788Z,101373.53
2023-04-11T13:40:10.883Z,101375.31
2023-04-11T13:42:37.350Z,101371.75
2023-04-11T13:45:04.526Z,101385.13
2023-04-11T13:47:38.632Z,101381.75
2023-04-11T13:50:07.084Z,101378.63
2023-04-11T13:52:33.865Z,101383.28
2023-04-11T13:55:00.711Z,101375.91
2023-04-11T13:57:28.566Z,101366.66
2023-04-11T13:59:55.178Z,101378.75
2023-04-11T14:02:21.804Z,101370.84
2023-04-11T14:04:49.519Z,101372.81
2023-04-11T14:07:16.266Z,101372.00
2023-04-11T14:09:42.750Z,101364.06
2023-04-11T14:12:09.351Z,101359.88
2023-04-11T14:14:47.680Z,101355.69
2023-04-11T14:17:29.994Z,101347.94
2023-04-11T14:19:56.460Z,101363.44
2023-04-11T14:22:22.932Z,101349.41
2023-04-11T14:24:49.312Z,101360.16
2023-04-11T14:27:16.020Z,101368.00
2023-04-11T14:29:42.721Z,101348.81
2023-04-11T14:32:09.712Z,101352.09
2023-04-11T14:34:36.514Z,101357.66
2023-04-11T14:37:06.698Z,101347.06
2023-04-11T14:39:33.445Z,101351.72
2023-04-11T14:42:02.034Z,101346.25
2023-04-11T14:47:23.650Z,101322.25
2023-04-11T14:49:50.100Z,101329.19
2023-04-11T14:52:16.573Z,101332.31
2023-04-11T14:54:43.027Z,101337.25
2023-04-11T14:57:09.794Z,101333.31
2023-04-11T14:59:59.014Z,101327.16
2023-04-11T15:02:33.845Z,101322.19
2023-04-11T15:05:00.991Z,101330.09
2023-04-11T15:07:27.432Z,101327.84
2023-04-11T15:09:54.004Z,101331.22
2023-04-11T15:12:20.571Z,101319.94
2023-04-11T15:14:47.128Z,101308.50
2023-04-11T15:17:13.899Z,101317.16
2023-04-11T15:19:40.444Z,101301.75
2023-04-11T15:22:06.847Z,101297.56
2023-04-11T15:27:13.543Z,101298.66
2023-04-11T15:29:40.235Z,101300.25
2023-04-11T15:32:06.883Z,101304.66
2023-04-11T15:34:33.352Z,101300.75
2023-04-11T15:36:59.791Z,101293.69
2023-04-11T15:39:26.474Z,101295.03
2023-04-11T15:41:53.257Z,101293.19
2023-04-11T15:44:22.663Z,101284.63
2023-04-11T15:46:49.546Z,101288.00
2023-04-11T15:49:16.338Z,101289.94
2023-04-11T15:51:45.203Z,101285.34
2023-04-11T15:56:52.147Z,101271.63
2023-04-11T15:59:18.554Z,101261.91
2023-04-11T16:01:46.329Z,101272.16
2023-04-11T16:04:13.136Z,101270.00
2023-04-11T16:06:54.626Z,101278.09
2023-04-11T16:09:27.428Z,101269.97
2023-04-11T16:12:03.300Z,101279.47
2023-04-11T16:14:30.042Z,101278.53
2023-04-11T16:16:57.782Z,101273.78
2023-04-11T16:19:24.876Z,101267.63
2023-04-11T16:21:51.521Z,101268.06
2023-04-11T16:24:20.990Z,101263.03
2023-04-11T16:26:47.479Z,101265.75
2023-04-11T16:29:14.124Z,101252.00
2023-04-11T16:31:40.774Z,101247.78
2023-04-11T16:34:07.201Z,101252.75
2023-04-11T16:36:34.605Z,101244.09
2023-04-11T16:39:04.967Z,101247.78
2023-04-11T16:41:36.068Z,101249.69
2023-04-11T16:44:05.828Z,101244.06
2023-04-11T16:46:32.521Z,101246.03
2023-04-11T16:48:59.383Z,101245.31
2023-04-11T16:51:26.076Z,101243.81
2023-04-11T16:53:53.267Z,101235.25
2023-04-11T16:56:19.952Z,101237.19
2023-04-11T16:58:46.754Z,101233.19
2023-04-11T17:01:13.750Z,101233.25
2023-04-11T17:03:42.267Z,101213.56
2023-04-11T17:06:16.347Z,101212.34
2023-04-11T17:08:44.344Z,101215.69
2023-04-11T17:11:22.958Z,101214.06
2023-04-11T17:13:58.145Z,101207.00
2023-04-11T17:16:24.757Z,101204.47
2023-04-11T17:19:10.145Z,101196.09
2023-04-11T17:21:36.828Z,101199.56
2023-04-11T17:24:03.459Z,101201.78
2023-04-11T17:26:30.041Z,101199.66
2023-04-11T17:29:02.858Z,101197.78
2023-04-11T17:31:32.341Z,101185.59
2023-04-11T17:34:01.960Z,101191.28
2023-04-11T17:36:54.091Z,101183.47
2023-04-11T17:39:28.296Z,101177.19
2023-04-11T17:41:55.370Z,101171.41
2023-04-11T17:44:22.055Z,101173.59
2023-04-11T17:46:48.631Z,101161.75
2023-04-11T17:49:15.363Z,101161.03
2023-04-11T17:51:48.900Z,101153.88
2023-04-11T17:54:19.032Z,101139.81
2023-04-11T17:56:45.589Z,101144.69
2023-04-11T17:59:12.187Z,101145.66
2023-04-11T18:01:39.024Z,101137.03
2023-04-11T18:04:09.676Z,101144.47
2023-04-11T18:06:36.471Z,101135.44
2023-04-11T18:09:04.075Z,101142.56
2023-04-11T18:11:30.473Z,101141.13
2023-04-11T18:13:57.404Z,101144.03
2023-04-11T18:16:24.178Z,101135.78
2023-04-11T18:18:50.720Z,101139.63
2023-04-11T18:21:17.493Z,101139.53
2023-04-11T18:23:44.092Z,101135.28
2023-04-11T18:26:10.738Z,101129.31
2023-04-11T18:28:43.531Z,101134.56
2023-04-11T18:31:10.405Z,101131.59
2023-04-11T18:33:43.753Z,101126.78
2023-04-11T18:36:12.194Z,101125.13
2023-04-11T18:38:38.964Z,101123.06
2023-04-11T18:41:07.474Z,101119.44
2023-04-11T18:43:35.263Z,101113.94
2023-04-11T18:46:09.855Z,101116.56
2023-04-11T18:48:40.005Z,101110.03
2023-04-11T18:51:15.690Z,101108.53
2023-04-11T18:53:42.591Z,101110.13
2023-04-11T18:56:09.473Z,101102.34
2023-04-11T18:58:40.056Z,101101.44
2023-04-11T19:01:15.345Z,101095.59
2023-04-11T19:03:43.991Z,101099.00
2023-04-11T19:06:10.635Z,101094.97
2023-04-11T19:08:37.341Z,101094.81
2023-04-11T19:11:03.962Z,101085.00
2023-04-11T19:13:30.347Z,101083.00
2023-04-11T19:15:56.982Z,101075.94
2023-04-11T19:18:23.664Z,101076.72
2023-04-11T19:20:52.181Z,101074.34
2023-04-11T19:23:18.618Z,101072.66
2023-04-11T19:25:45.432Z,101077.13
2023-04-11T19:28:11.921Z,101073.19
2023-04-11T19:30:44.567Z,101064.63
2023-04-11T19:33:11.165Z,101068.47
2023-04-11T19:35:37.779Z,101066.38
2023-04-11T19:38:05.918Z,101059.28
2023-04-11T19:40:32.424Z,101063.00
2023-04-11T19:42:58.920Z,101065.72
2023-04-11T19:45:25.443Z,101057.34
2023-04-11T19:47:52.118Z,101050.63
2023-04-11T19:50:18.849Z,101047.16
2023-04-11T19:52:45.373Z,101045.44
2023-04-11T19:55:12.609Z,101048.03
2023-04-11T19:57:40.199Z,101038.34
2023-04-11T20:00:13.241Z,101031.00
2023-04-11T20:02:45.009Z,101019.41
2023-04-11T20:05:17.051Z,101016.69
2023-04-11T20:07:44.420Z,101022.78
2023-04-11T20:10:12.357Z,101016.25
2023-04-11T20:12:39.025Z,101000.03
2023-04-11T20:15:06.491Z,101000.09
2023-04-11T20:17:32.981Z,100996.25
2023-04-11T20:19:59.544Z,100993.81
2023-04-11T20:22:27.710Z,100997.31
2023-04-11T20:24:57.967Z,100983.34
2023-04-11T20:27:27.499Z,100979.03
2023-04-11T20:29:56.286Z,100968.22
2023-04-11T20:32:22.738Z,100967.44
2023-04-11T20:34:49.858Z,100970.47
2023-04-11T20:37:18.788Z,100959.66
2023-04-11T20:39:45.883Z,100952.66
2023-04-11T20:42:12.393Z,100944.09
2023-04-11T20:44:38.861Z,100938.69
2023-04-11T20:47:05.543Z,100925.94
2023-04-11T20:49:31.966Z,100917.84
2023-04-11T20:51:58.665Z,100912.41
2023-04-11T20:54:26.454Z,100910.53
2023-04-11T20:56:52.922Z,100897.78
2023-04-11T20:59:19.353Z,100896.66
2023-04-11T21:01:45.918Z,100898.56
2023-04-11T21:04:13.026Z,100879.53
2023-04-11T21:06:39.573Z,100883.72
2023-04-11T21:09:06.203Z,100875.19
2023-04-11T21:11:38.793Z,100867.84
2023-04-11T21:14:17.577Z,100869.78
2023-04-11T21:16:44.094Z,100857.38
2023-04-11T21:19:10.689Z,100860.41
2023-04-11T21:21:39.716Z,100856.13
2023-04-11T21:24:08.476Z,100854.91
2023-04-11T21:26:35.154Z,100847.59
2023-04-11T21:29:01.626Z,100849.16
2023-04-11T21:31:28.209Z,100840.28
2023-04-11T21:33:55.113Z,100843.75
2023-04-11T21:36:21.804Z,100838.69
2023-04-11T21:38:48.689Z,100833.97
2023-04-11T21:41:15.146Z,100827.00
2023-04-11T21:43:41.602Z,100828.13
2023-04-11T21:46:08.034Z,100823.84
2023-04-11T21:48:35.064Z,100819.25
2023-04-11T21:51:04.678Z,100819.59
2023-04-11T21:53:31.139Z,100806.41
2023-04-11T21:55:57.530Z,100816.06
2023-04-11T21:58:29.550Z,100804.06
2023-04-11T22:00:56.569Z,100803.28
2023-04-11T22:03:23.690Z,100798.22
2023-04-11T22:05:51.036Z,100806.31
2023-04-11T22:08:22.701Z,100805.53
2023-04-11T22:10:50.758Z,100802.38
2023-04-11T22:13:20.623Z,100799.25
2023-04-11T22:16:05.528Z,100788.69
2023-04-11T22:18:49.812Z,100789.75
2023-04-11T22:21:19.723Z,100785.38
2023-04-11T22:23:54.474Z,100779.44
2023-04-11T22:26:26.908Z,100769.31
2023-04-11T22:28:54.619Z,100777.69
2023-04-11T22:31:21.383Z,100767.91
2023-04-11T22:33:49.036Z,100759.72
2023-04-11T22:36:16.126Z,100754.56
2023-04-11T22:38:43.721Z,100747.13
2023-04-11T22:41:14.750Z,100737.03
2023-04-11T22:43:41.316Z,100721.09
2023-04-11T22:46:09.167Z,100726.03
2023-04-11T22:51:16.365Z,100720.00
2023-04-11T22:53:52.026Z,100720.59
2023-04-11T22:56:18.487Z,100714.31
2023-04-11T22:58:45.840Z,100697.59
2023-04-11T23:03:54.116Z,100687.81
2023-04-11T23:06:20.814Z,100690.44
2023-04-11T23:08:59.721Z,100696.50
2023-04-11T23:11:26.273Z,100680.31
2023-04-11T23:13:53.562Z,100675.59
2023-04-11T23:16:29.830Z,100665.47
2023-04-11T23:18:56.326Z,100657.38
2023-04-11T23:21:45.298Z,100658.88
2023-04-11T23:24:19.187Z,100661.91
2023-04-11T23:26:45.779Z,100648.75
2023-04-11T23:29:18.541Z,100651.78
2023-04-11T23:37:07.832Z,100631.94
2023-04-11T23:39:37.989Z,100626.09
2023-04-11T23:42:05.688Z,100619.13
2023-04-11T23:44:34.393Z,100605.88
2023-04-11T23:47:01.054Z,100606.56
2023-04-11T23:49:27.695Z,100598.38
2023-04-11T23:51:54.142Z,100597.06
2023-04-11T23:54:20.636Z,100580.78
